createdAt,value
2023-04-23T00:01:08.641Z,2.10
2023-04-23T00:03:37.504Z,2.60
2023-04-23T00:06:06.362Z,2.22
2023-04-23T00:08:34.499Z,1.85
2023-04-23T00:11:02.260Z,2.30
2023-04-23T00:13:29.183Z,1.98
2023-04-23T00:15:56.071Z,1.90
2023-04-23T00:18:22.757Z,1.80
2023-04-23T00:20:49.481Z,1.40
2023-04-23T00:23:16.227Z,1.65
2023-04-23T00:25:42.900Z,2.17
2023-04-23T00:28:09.735Z,2.10
2023-04-23T00:30:36.459Z,1.65
2023-04-23T00:33:03.407Z,1.98
2023-04-23T00:35:30.197Z,1.50
2023-04-23T00:37:56.900Z,1.90
2023-04-23T00:40:23.758Z,1.88
2023-04-23T00:42:53.619Z,1.95
2023-04-23T00:45:21.012Z,1.60
2023-04-23T00:47:49.444Z,1.63
2023-04-23T00:50:16.470Z,1.90
2023-04-23T00:52:43.207Z,1.85
2023-04-23T00:55:10.063Z,1.80
2023-04-23T00:57:38.295Z,1.88
2023-04-23T01:00:07.293Z,2.00
2023-04-23T01:02:36.784Z,2.00
2023-04-23T01:05:05.066Z,1.70
2023-04-23T01:07:35.202Z,1.80
2023-04-23T01:10:03.835Z,2.00
2023-04-23T01:12:31.132Z,2.10
2023-04-23T01:14:58.370Z,2.15
2023-04-23T01:17:26.755Z,1.67
2023-04-23T01:19:53.858Z,2.15
2023-04-23T01:22:20.934Z,2.08
2023-04-23T01:24:48.112Z,1.90
2023-04-23T01:27:15.063Z,1.95
2023-04-23T01:29:42.145Z,1.90
2023-04-23T01:32:09.254Z,2.28
2023-04-23T01:34:38.445Z,2.30
2023-04-23T01:37:05.914Z,2.22
2023-04-23T01:39:33.060Z,2.13
2023-04-23T01:42:01.266Z,2.35
2023-04-23T01:44:28.163Z,2.13
2023-04-23T01:46:54.925Z,2.05
2023-04-23T01:49:21.606Z,2.25
2023-04-23T01:51:48.306Z,2.47
2023-04-23T01:54:15.179Z,2.00
2023-04-23T01:56:42.168Z,2.10
2023-04-23T01:59:08.955Z,2.05
2023-04-23T02:01:44.244Z,2.05
2023-04-23T02:04:12.918Z,2.00
2023-04-23T02:06:41.210Z,2.30
2023-04-23T02:09:08.134Z,2.13
2023-04-23T02:11:34.933Z,2.17
2023-04-23T02:14:02.616Z,2.30
2023-04-23T02:16:29.893Z,2.30
2023-04-23T02:18:56.735Z,2.00
2023-04-23T02:21:25.147Z,2.00
2023-04-23T02:23:51.901Z,2.05
2023-04-23T02:26:18.892Z,2.35
2023-04-23T02:28:46.412Z,2.67
2023-04-23T02:31:13.302Z,2.40
2023-04-23T02:33:42.398Z,2.35
2023-04-23T02:36:11.721Z,2.13
2023-04-23T02:38:42.162Z,1.83
2023-04-23T02:41:08.943Z,2.28
2023-04-23T02:43:35.655Z,2.08
2023-04-23T02:46:08.421Z,2.03
2023-04-23T02:48:41.004Z,2.35
2023-04-23T02:51:10.805Z,2.10
2023-04-23T02:53:37.527Z,2.30
2023-04-23T02:56:04.626Z,2.22
2023-04-23T02:58:31.889Z,2.47
2023-04-23T03:01:00.721Z,2.40
2023-04-23T03:03:31.723Z,2.67
2023-04-23T03:06:00.726Z,2.70
2023-04-23T03:08:27.908Z,2.67
2023-04-23T03:10:55.184Z,2.45
2023-04-23T03:13:21.996Z,2.60
2023-04-23T03:15:48.909Z,2.95
2023-04-23T03:18:15.980Z,3.30
2023-04-23T03:20:44.123Z,2.58
2023-04-23T03:23:11.001Z,3.30
2023-04-23T03:25:37.786Z,3.15
2023-04-23T03:28:05.082Z,2.97
2023-04-23T03:30:32.209Z,3.28
2023-04-23T03:33:00.098Z,3.65
2023-04-23T03:35:26.913Z,3.75
2023-04-23T03:37:55.552Z,3.50
2023-04-23T03:40:25.056Z,3.70
2023-04-23T03:42:55.146Z,4.00
2023-04-23T03:45:31.146Z,3.60
2023-04-23T03:47:58.104Z,3.53
2023-04-23T03:50:24.859Z,3.80
2023-04-23T03:53:05.607Z,3.65
2023-04-23T03:55:52.289Z,3.15
2023-04-23T03:58:18.949Z,2.92
2023-04-23T04:00:47.276Z,3.00
2023-04-23T04:03:14.159Z,3.15
2023-04-23T04:05:40.952Z,2.72
2023-04-23T04:08:07.638Z,3.10
2023-04-23T04:10:34.297Z,3.35
2023-04-23T04:13:01.500Z,3.75
2023-04-23T04:15:28.233Z,3.22
2023-04-23T04:17:54.923Z,3.25
2023-04-23T04:20:21.589Z,3.38
2023-04-23T04:22:48.219Z,3.30
2023-04-23T04:25:14.881Z,3.42
2023-04-23T04:27:41.563Z,2.60
2023-04-23T04:30:09.227Z,3.33
2023-04-23T04:32:38.629Z,3.22
2023-04-23T04:35:08.980Z,3.35
2023-04-23T04:37:36.208Z,3.17
2023-04-23T04:40:02.914Z,2.88
2023-04-23T04:42:29.584Z,3.47
2023-04-23T04:44:59.248Z,3.75
2023-04-23T04:47:26.308Z,3.97
2023-04-23T04:49:53.047Z,3.55
2023-04-23T04:52:19.897Z,4.50
2023-04-23T04:54:46.563Z,3.65
2023-04-23T04:57:13.218Z,3.88
2023-04-23T04:59:40.036Z,3.83
2023-04-23T05:02:07.091Z,3.60
2023-04-23T05:04:34.120Z,4.18
2023-04-23T05:07:00.765Z,4.90
2023-04-23T05:09:27.404Z,4.38
2023-04-23T05:11:54.098Z,4.38
2023-04-23T05:14:21.042Z,4.53
2023-04-23T05:16:47.693Z,5.18
2023-04-23T05:19:14.412Z,4.70
2023-04-23T05:21:41.293Z,4.15
2023-04-23T05:24:08.061Z,4.57
2023-04-23T05:26:34.781Z,4.68
2023-04-23T05:29:01.462Z,4.88
2023-04-23T05:31:29.441Z,5.00
2023-04-23T05:33:56.244Z,4.38
2023-04-23T05:36:22.952Z,4.82
2023-04-23T05:38:49.639Z,4.38
2023-04-23T05:41:16.310Z,4.47
2023-04-23T05:43:43.169Z,4.43
2023-04-23T05:46:10.093Z,4.57
2023-04-23T05:48:36.818Z,3.92
2023-04-23T05:51:03.740Z,4.78
2023-04-23T05:53:30.431Z,4.40
2023-04-23T05:55:57.336Z,4.50
2023-04-23T05:58:24.091Z,4.25
2023-04-23T06:00:52.848Z,3.88
2023-04-23T06:03:19.966Z,4.40
2023-04-23T06:05:46.976Z,4.20
2023-04-23T06:08:13.710Z,4.78
2023-04-23T06:10:40.475Z,5.07
2023-04-23T06:13:07.706Z,4.78
2023-04-23T06:15:34.437Z,4.80
2023-04-23T06:18:01.209Z,4.55
2023-04-23T06:20:28.075Z,6.25
2023-04-23T06:22:54.799Z,4.28
2023-04-23T06:25:21.598Z,4.53
2023-04-23T06:27:48.246Z,3.78
2023-04-23T06:30:20.190Z,4.38
2023-04-23T06:32:47.008Z,5.43
2023-04-23T06:35:13.743Z,5.05
2023-04-23T06:37:40.657Z,4.10
2023-04-23T06:40:07.776Z,3.25
2023-04-23T06:42:34.454Z,4.38
2023-04-23T06:47:54.147Z,4.80
2023-04-23T06:50:21.014Z,4.90
2023-04-23T06:52:47.725Z,6.20
2023-04-23T06:55:14.639Z,9.70
2023-04-23T06:57:41.340Z,13.57
2023-04-23T07:00:09.116Z,12.02
2023-04-23T07:02:38.568Z,8.80
2023-04-23T07:05:05.666Z,5.53
2023-04-23T07:07:32.448Z,4.60
2023-04-23T07:09:59.125Z,4.80
2023-04-23T07:12:25.783Z,4.30
2023-04-23T07:14:54.262Z,3.90
2023-04-23T07:17:21.559Z,3.78
2023-04-23T07:19:48.450Z,3.65
2023-04-23T07:22:15.174Z,4.30
2023-04-23T07:24:42.107Z,3.58
2023-04-23T07:27:09.120Z,3.35
2023-04-23T07:29:35.983Z,2.80
2023-04-23T07:32:02.778Z,2.88
2023-04-23T07:34:29.460Z,2.90
2023-04-23T07:36:57.251Z,2.67
2023-04-23T07:39:23.929Z,2.30
2023-04-23T07:41:50.744Z,2.40
2023-04-23T07:44:17.407Z,2.90
2023-04-23T07:46:44.148Z,2.75
2023-04-23T07:49:10.824Z,3.45
2023-04-23T07:51:37.751Z,2.58
2023-04-23T07:54:04.757Z,3.03
2023-04-23T07:56:32.456Z,2.90
2023-04-23T07:59:00.176Z,3.60
2023-04-23T08:01:27.036Z,2.97
2023-04-23T08:03:59.101Z,3.53
2023-04-23T08:06:27.249Z,2.80
2023-04-23T08:08:55.987Z,3.45
2023-04-23T08:11:23.649Z,3.20
2023-04-23T08:13:50.367Z,3.35
2023-04-23T08:16:17.105Z,3.90
2023-04-23T08:18:50.908Z,3.53
2023-04-23T08:21:26.898Z,3.50
2023-04-23T08:23:53.576Z,3.60
2023-04-23T08:26:20.315Z,3.38
2023-04-23T08:28:46.964Z,3.60
2023-04-23T08:31:25.514Z,3.40
2023-04-23T08:33:53.534Z,3.20
2023-04-23T08:36:20.544Z,2.92
2023-04-23T08:38:47.222Z,3.20
2023-04-23T08:41:15.334Z,2.63
2023-04-23T08:43:52.222Z,3.40
2023-04-23T08:46:19.855Z,2.60
2023-04-23T08:48:48.045Z,2.42
2023-04-23T08:51:18.964Z,2.67
2023-04-23T08:53:50.541Z,2.30
2023-04-23T08:56:17.302Z,2.30
2023-04-23T08:58:45.439Z,4.00
2023-04-23T09:01:12.578Z,3.90
2023-04-23T09:03:40.436Z,2.10
2023-04-23T09:06:07.768Z,2.15
2023-04-23T09:08:34.641Z,1.83
2023-04-23T09:11:02.381Z,2.40
2023-04-23T09:13:31.983Z,1.48
2023-04-23T09:15:58.731Z,1.00
2023-04-23T09:18:25.433Z,1.20
2023-04-23T09:20:53.413Z,1.48
2023-04-23T09:23:22.571Z,1.25
2023-04-23T09:25:49.312Z,1.30
2023-04-23T09:28:16.041Z,1.30
2023-04-23T09:30:48.340Z,0.90
2023-04-23T09:33:17.230Z,1.20
2023-04-23T09:35:44.338Z,1.30
2023-04-23T09:38:11.804Z,1.13
2023-04-23T09:40:38.772Z,1.20
2023-04-23T09:43:07.271Z,1.40
2023-04-23T09:45:35.292Z,1.27
2023-04-23T09:48:02.304Z,1.10
2023-04-23T09:50:39.597Z,1.05
2023-04-23T09:53:07.975Z,1.15
2023-04-23T09:55:38.584Z,1.25
2023-04-23T09:58:07.281Z,1.30
2023-04-23T10:00:38.957Z,1.10
2023-04-23T10:03:07.960Z,1.87
2023-04-23T10:05:59.743Z,1.90
2023-04-23T10:08:27.156Z,1.10
2023-04-23T10:11:06.015Z,1.23
2023-04-23T10:13:41.325Z,0.90
2023-04-23T10:16:21.708Z,0.88
2023-04-23T10:18:53.132Z,1.10
2023-04-23T10:21:24.445Z,0.70
2023-04-23T10:23:51.715Z,0.90
2023-04-23T10:26:20.073Z,0.82
2023-04-23T10:28:48.811Z,0.70
2023-04-23T10:31:16.306Z,0.82
2023-04-23T10:33:55.856Z,0.90
2023-04-23T10:36:27.466Z,0.82
2023-04-23T10:38:58.393Z,1.00
2023-04-23T10:41:29.815Z,1.08
2023-04-23T10:43:57.699Z,0.82
2023-04-23T10:46:36.482Z,1.00
2023-04-23T10:49:15.795Z,1.33
2023-04-23T10:52:18.067Z,1.13
2023-04-23T10:54:34.214Z,1.15
2023-04-23T10:57:03.696Z,1.10
2023-04-23T10:59:40.370Z,1.10
2023-04-23T11:02:14.442Z,1.20
2023-04-23T11:04:54.079Z,1.10
2023-04-23T11:07:20.807Z,1.33
2023-04-23T11:09:48.190Z,1.10
2023-04-23T11:12:32.680Z,1.13
2023-04-23T11:15:09.401Z,1.10
2023-04-23T11:17:36.051Z,1.10
2023-04-23T11:20:20.097Z,1.10
2023-04-23T11:22:48.837Z,1.10
2023-04-23T11:25:28.701Z,1.00
2023-04-23T11:27:56.677Z,1.10
2023-04-23T11:30:27.319Z,1.38
2023-04-23T11:32:56.811Z,1.02
2023-04-23T11:35:28.444Z,1.00
2023-04-23T11:37:55.330Z,1.30
2023-04-23T11:40:22.915Z,1.25
2023-04-23T11:42:51.565Z,1.00
2023-04-23T11:45:20.250Z,1.10
2023-04-23T11:47:49.043Z,1.10
2023-04-23T11:50:23.912Z,1.10
2023-04-23T11:52:51.514Z,1.20
2023-04-23T11:55:18.972Z,0.90
2023-04-23T11:57:50.404Z,1.38
2023-04-23T12:00:25.249Z,0.90
2023-04-23T12:03:02.843Z,1.08
2023-04-23T12:05:39.292Z,1.10
2023-04-23T12:08:20.164Z,1.20
2023-04-23T12:10:53.036Z,1.15
2023-04-23T12:13:22.980Z,1.08
2023-04-23T12:15:51.814Z,1.10
2023-04-23T12:18:19.257Z,1.02
2023-04-23T12:20:46.289Z,1.00
2023-04-23T12:23:12.979Z,1.80
2023-04-23T12:25:42.186Z,1.10
2023-04-23T12:28:08.974Z,1.00
2023-04-23T12:30:43.473Z,0.82
2023-04-23T12:33:11.930Z,1.20
2023-04-23T12:35:42.151Z,1.10
2023-04-23T12:38:27.956Z,0.90
2023-04-23T12:40:56.666Z,1.30
2023-04-23T12:43:24.664Z,0.90
2023-04-23T12:45:52.052Z,1.05
2023-04-23T12:48:19.128Z,1.30
2023-04-23T12:50:47.037Z,1.00
2023-04-23T12:53:14.037Z,1.20
2023-04-23T12:55:43.011Z,1.00
2023-04-23T12:58:09.784Z,0.98
2023-04-23T13:00:36.497Z,0.98
2023-04-23T13:03:03.495Z,1.15
2023-04-23T13:05:30.707Z,1.10
2023-04-23T13:07:57.428Z,1.00
2023-04-23T13:10:24.236Z,1.00
2023-04-23T13:12:50.894Z,1.33
2023-04-23T13:15:19.259Z,1.20
2023-04-23T13:17:46.926Z,1.00
2023-04-23T13:20:13.602Z,1.02
2023-04-23T13:22:40.267Z,1.20
2023-04-23T13:25:07.278Z,1.10
2023-04-23T13:27:33.974Z,1.30
2023-04-23T13:30:01.239Z,1.00
2023-04-23T13:32:31.878Z,1.17
2023-04-23T13:35:01.804Z,1.20
2023-04-23T13:37:31.285Z,1.40
2023-04-23T13:39:57.953Z,0.95
2023-04-23T13:42:24.627Z,1.10
2023-04-23T13:44:51.311Z,1.23
2023-04-23T13:47:18.102Z,1.30
2023-04-23T13:49:44.909Z,1.10
2023-04-23T13:52:11.606Z,1.05
2023-04-23T13:54:39.223Z,1.13
2023-04-23T13:57:06.426Z,1.17
2023-04-23T13:59:33.190Z,1.10
2023-04-23T14:01:59.940Z,1.15
2023-04-23T14:04:27.028Z,1.10
2023-04-23T14:06:53.838Z,1.02
2023-04-23T14:09:22.112Z,1.10
2023-04-23T14:11:48.941Z,1.20
2023-04-23T14:14:16.469Z,1.40
2023-04-23T14:16:43.187Z,1.15
2023-04-23T14:19:09.887Z,1.27
2023-04-23T14:21:37.294Z,1.00
2023-04-23T14:24:10.559Z,1.25
2023-04-23T14:29:19.548Z,1.30
2023-04-23T14:31:46.369Z,1.15
2023-04-23T14:34:13.053Z,1.40
2023-04-23T14:36:40.097Z,1.30
2023-04-23T14:39:07.179Z,0.95
2023-04-23T14:41:34.344Z,1.17
2023-04-23T14:44:01.705Z,1.27
2023-04-23T14:46:29.179Z,1.13
2023-04-23T14:48:56.168Z,1.30
2023-04-23T14:51:23.473Z,1.30
2023-04-23T14:53:51.389Z,1.40
2023-04-23T14:56:18.119Z,1.20
2023-04-23T14:58:45.100Z,1.30
2023-04-23T15:01:11.843Z,1.20
2023-04-23T15:03:38.942Z,1.30
2023-04-23T15:06:07.281Z,1.48
2023-04-23T15:08:34.206Z,1.35
2023-04-23T15:11:00.899Z,1.02
2023-04-23T15:13:42.315Z,1.17
2023-04-23T15:16:46.646Z,1.10
2023-04-23T15:19:17.570Z,1.00
2023-04-23T15:21:44.410Z,1.10
2023-04-23T15:24:11.095Z,1.30
2023-04-23T15:26:38.209Z,1.48
2023-04-23T15:29:08.557Z,1.50
2023-04-23T15:31:35.646Z,1.50
2023-04-23T15:34:02.456Z,1.13
2023-04-23T15:36:29.131Z,1.35
2023-04-23T15:38:55.838Z,1.23
2023-04-23T15:41:22.570Z,1.10
2023-04-23T15:43:50.412Z,1.08
2023-04-23T15:46:17.341Z,0.93
2023-04-23T15:48:44.474Z,1.25
2023-04-23T15:51:11.197Z,1.10
2023-04-23T15:53:37.883Z,1.50
2023-04-23T15:56:04.607Z,1.42
2023-04-23T15:58:31.382Z,1.38
2023-04-23T16:00:58.094Z,1.35
2023-04-23T16:03:24.893Z,1.45
2023-04-23T16:05:52.275Z,1.60
2023-04-23T16:08:19.108Z,1.58
2023-04-23T16:10:45.862Z,1.73
2023-04-23T16:13:12.735Z,2.60
2023-04-23T16:15:39.428Z,2.30
2023-04-23T16:18:06.424Z,2.60
2023-04-23T16:20:33.400Z,1.90
2023-04-23T16:23:00.287Z,1.75
2023-04-23T16:25:27.045Z,2.38
2023-04-23T16:27:53.828Z,2.40
2023-04-23T16:30:21.071Z,3.00
2023-04-23T16:32:47.804Z,2.22
2023-04-23T16:35:14.538Z,2.50
2023-04-23T16:37:41.207Z,1.83
2023-04-23T16:40:08.491Z,3.00
2023-04-23T16:42:35.401Z,2.97
2023-04-23T16:45:03.008Z,3.10
2023-04-23T16:47:29.769Z,3.30
2023-04-23T16:49:56.623Z,6.28
2023-04-23T16:52:23.347Z,5.03
2023-04-23T16:54:50.831Z,3.92
2023-04-23T16:57:18.115Z,3.30
2023-04-23T16:59:44.910Z,3.10
2023-04-23T17:02:11.831Z,3.25
2023-04-23T17:04:38.871Z,3.63
2023-04-23T17:07:05.937Z,3.05
2023-04-23T17:09:32.645Z,2.90
2023-04-23T17:11:59.594Z,1.27
2023-04-23T17:14:26.604Z,1.20
2023-04-23T17:16:53.305Z,1.10
2023-04-23T17:19:19.994Z,1.73
2023-04-23T17:21:46.756Z,2.65
2023-04-23T17:24:13.549Z,1.55
2023-04-23T17:26:40.387Z,1.65
2023-04-23T17:29:07.151Z,1.92
2023-04-23T17:31:35.833Z,1.90
2023-04-23T17:34:03.592Z,1.20
2023-04-23T17:36:30.309Z,1.95
2023-04-23T17:38:57.338Z,5.45
2023-04-23T17:41:24.226Z,3.50
2023-04-23T17:43:51.038Z,3.40
2023-04-23T17:46:18.920Z,1.35
2023-04-23T17:48:45.938Z,1.20
2023-04-23T17:51:12.635Z,1.75
2023-04-23T17:53:39.553Z,1.45
2023-04-23T17:56:06.432Z,1.77
2023-04-23T17:58:34.833Z,1.75
2023-04-23T18:01:02.926Z,1.60
2023-04-23T18:03:30.604Z,1.58
2023-04-23T18:05:57.541Z,2.65
2023-04-23T18:08:24.193Z,2.10
2023-04-23T18:10:51.009Z,1.77
2023-04-23T18:13:18.346Z,1.60
2023-04-23T18:15:49.791Z,1.88
2023-04-23T18:18:18.038Z,1.47
2023-04-23T18:20:46.027Z,2.20
2023-04-23T18:23:14.241Z,2.10
2023-04-23T18:25:41.804Z,1.92
2023-04-23T18:28:08.585Z,1.60
2023-04-23T18:30:37.938Z,2.58
2023-04-23T18:33:10.742Z,2.00
2023-04-23T18:35:39.407Z,2.42
2023-04-23T18:38:10.485Z,3.13
2023-04-23T18:40:37.225Z,3.50
2023-04-23T18:43:03.949Z,2.85
2023-04-23T18:45:30.727Z,2.22
2023-04-23T18:48:02.576Z,2.00
2023-04-23T18:50:31.717Z,2.92
2023-04-23T18:52:58.947Z,1.65
2023-04-23T18:55:25.634Z,1.55
2023-04-23T18:57:52.512Z,6.32
2023-04-23T19:00:19.216Z,19.48
2023-04-23T19:02:46.037Z,8.90
2023-04-23T19:05:13.162Z,4.15
2023-04-23T19:07:42.276Z,1.58
2023-04-23T19:10:09.570Z,1.67
2023-04-23T19:12:36.284Z,29.08
2023-04-23T19:15:03.073Z,24.38
2023-04-23T19:17:29.766Z,16.40
2023-04-23T19:19:56.571Z,13.65
2023-04-23T19:22:25.630Z,1.73
2023-04-23T19:24:52.478Z,1.60
2023-04-23T19:27:19.966Z,3.30
2023-04-23T19:29:48.336Z,3.03
2023-04-23T19:32:15.174Z,2.03
2023-04-23T19:34:41.838Z,2.58
2023-04-23T19:37:08.550Z,2.35
2023-04-23T19:39:35.333Z,3.45
2023-04-23T19:42:02.693Z,2.63
2023-04-23T19:44:29.459Z,2.22
2023-04-23T19:46:56.587Z,1.98
2023-04-23T19:49:23.406Z,1.85
2023-04-23T19:51:53.211Z,1.38
2023-04-23T19:54:20.085Z,1.17
2023-04-23T19:56:47.388Z,1.10
2023-04-23T19:59:15.284Z,1.27
2023-04-23T20:01:42.022Z,1.10
2023-04-23T20:04:09.255Z,0.60
2023-04-23T20:06:36.514Z,0.80
2023-04-23T20:09:18.620Z,1.00
2023-04-23T20:11:46.096Z,0.90
2023-04-23T20:14:13.008Z,1.10
2023-04-23T20:16:40.771Z,1.02
2023-04-23T20:19:14.109Z,1.00
2023-04-23T20:21:42.626Z,1.20
2023-04-23T20:24:10.501Z,1.20
2023-04-23T20:26:38.670Z,1.10
2023-04-23T20:29:05.637Z,1.05
2023-04-23T20:31:33.260Z,1.10
2023-04-23T20:34:00.528Z,1.30
2023-04-23T20:36:33.176Z,0.90
2023-04-23T20:39:03.199Z,1.10
2023-04-23T20:41:32.454Z,1.15
2023-04-23T20:43:59.443Z,0.98
2023-04-23T20:46:26.586Z,0.93
2023-04-23T20:48:55.035Z,0.80
2023-04-23T20:51:22.837Z,0.93
2023-04-23T20:53:51.025Z,0.90
2023-04-23T20:56:18.316Z,1.30
2023-04-23T20:58:45.076Z,1.00
2023-04-23T21:01:11.834Z,0.90
2023-04-23T21:03:39.775Z,0.85
2023-04-23T21:06:08.509Z,0.60
2023-04-23T21:08:38.842Z,0.80
2023-04-23T21:11:09.885Z,0.47
2023-04-23T21:13:37.222Z,0.60
2023-04-23T21:16:03.974Z,0.73
2023-04-23T21:18:30.815Z,0.70
2023-04-23T21:20:57.858Z,0.60
2023-04-23T21:23:24.567Z,0.50
2023-04-23T21:25:51.665Z,0.40
2023-04-23T21:28:19.093Z,0.57
2023-04-23T21:30:50.852Z,0.40
2023-04-23T21:33:22.487Z,0.40
2023-04-23T21:35:50.908Z,0.30
2023-04-23T21:38:18.590Z,0.50
2023-04-23T21:40:45.761Z,0.40
2023-04-23T21:43:12.994Z,0.40
2023-04-23T21:45:39.808Z,0.40
2023-04-23T21:48:06.589Z,0.50
2023-04-23T21:50:33.782Z,0.50
2023-04-23T21:53:03.009Z,0.50
2023-04-23T21:55:33.596Z,0.50
2023-04-23T21:58:13.951Z,0.75
2023-04-23T22:00:44.435Z,0.60
2023-04-23T22:03:12.321Z,0.43
2023-04-23T22:05:41.366Z,0.55
2023-04-23T22:08:09.525Z,0.68
2023-04-23T22:10:42.635Z,0.63
2023-04-23T22:13:09.831Z,0.50
2023-04-23T22:15:36.853Z,0.40
2023-04-23T22:18:03.752Z,0.50
2023-04-23T22:20:30.645Z,0.60
2023-04-23T22:22:57.346Z,0.68
2023-04-23T22:25:24.286Z,0.50
2023-04-23T22:27:50.962Z,0.40
2023-04-23T22:30:17.759Z,0.40
2023-04-23T22:32:44.441Z,0.50
2023-04-23T22:35:11.411Z,0.60
2023-04-23T22:37:38.535Z,0.52
2023-04-23T22:40:07.690Z,0.40
2023-04-23T22:42:34.352Z,0.50
2023-04-23T22:45:01.630Z,0.30
2023-04-23T22:47:28.430Z,0.50
2023-04-23T22:49:55.241Z,0.57
2023-04-23T22:52:21.946Z,0.40
2023-04-23T22:54:48.655Z,1.08
2023-04-23T22:57:15.454Z,0.80
2023-04-23T22:59:42.397Z,0.50
2023-04-23T23:02:09.454Z,0.50
2023-04-23T23:04:38.580Z,0.50
2023-04-23T23:07:06.328Z,0.30
2023-04-23T23:09:33.089Z,0.30
2023-04-23T23:12:03.963Z,0.28
2023-04-23T23:14:31.787Z,0.30
2023-04-23T23:16:58.971Z,0.30
2023-04-23T23:19:30.837Z,0.30
2023-04-23T23:21:57.566Z,0.30
2023-04-23T23:24:24.280Z,0.30
2023-04-23T23:26:51.113Z,0.30
2023-04-23T23:29:17.985Z,0.20
2023-04-23T23:31:44.907Z,0.20
2023-04-23T23:34:11.906Z,0.30
2023-04-23T23:36:38.594Z,0.30
2023-04-23T23:39:06.513Z,0.30
2023-04-23T23:41:33.386Z,0.30
2023-04-23T23:44:00.111Z,0.30
2023-04-23T23:46:26.851Z,0.30
2023-04-23T23:48:54.217Z,0.30
2023-04-23T23:51:20.888Z,0.32
2023-04-23T23:53:47.536Z,0.30
2023-04-23T23:56:14.239Z,0.40
2023-04-23T23:58:40.923Z,0.40
